Time;durP1;ratioP1;P1;durP2;ratioP2;P2;SDS_P1;SDS_P2;PMS_P1;PMS_P2;Temp;Humidity;BMP_temperature;BMP_pressure;BME280_temperature;BME280_humidity;BME280_pressure;Samples;Min_cycle;Max_cycle;Signal;HPM_P1;HPM_P2
2022/08/15 00:00:59;;;;;;;;;16.00;16.00;;;;;23.41;55.10;99972.56;5067942;27;45238;-56
2022/08/15 00:03:31;;;;;;;;;16.00;16.00;;;;;23.43;54.51;99980.44;5071699;27;45269;-56
2022/08/15 00:05:59;;;;;;;;;15.75;14.00;;;;;23.41;55.49;99964.56;5075009;28;45470;-61
2022/08/15 00:08:27;;;;;;;;;18.75;17.25;;;;;23.41;55.26;99966.38;5074142;27;48068;-56
2022/08/15 00:10:54;;;;;;;;;16.00;15.50;;;;;23.40;55.26;99964.69;5076345;28;45555;-56
2022/08/15 00:13:23;;;;;;;;;15.00;12.25;;;;;23.40;55.52;99965.53;5070499;28;45472;-58
2022/08/15 00:15:51;;;;;;;;;19.50;16.00;;;;;23.44;55.21;99966.09;5053170;28;45257;-56
2022/08/15 00:18:18;;;;;;;;;17.00;15.75;;;;;23.44;55.02;99958.94;5081371;27;45501;-56
2022/08/15 00:20:44;;;;;;;;;17.75;15.75;;;;;23.46;55.30;99956.97;5079538;28;45866;-57
2022/08/15 00:23:12;;;;;;;;;16.25;14.25;;;;;23.47;55.31;99955.13;5078614;27;45322;-58
2022/08/15 00:25:39;;;;;;;;;16.75;14.25;;;;;23.46;54.98;99959.63;5078300;27;45411;-56
2022/08/15 00:28:06;;;;;;;;;15.00;14.00;;;;;23.46;54.62;99956.97;5075555;27;45486;-56
2022/08/15 00:30:33;;;;;;;;;20.75;17.00;;;;;23.48;54.75;99960.31;5078489;27;45334;-54
2022/08/15 00:32:58;;;;;;;;;20.25;18.00;;;;;23.47;54.46;99957.81;5076473;27;45438;-56
2022/08/15 00:35:39;;;;;;;;;19.25;16.50;;;;;23.46;54.40;99956.09;5079714;27;45304;-55
2022/08/15 00:38:11;;;;;;;;;17.50;16.00;;;;;23.45;54.57;99955.28;5078209;28;47297;-57
2022/08/15 00:43:28;;;;;;;;;18.50;16.25;;;;;23.46;54.50;99945.41;5073079;27;45220;-55
2022/08/15 00:45:54;;;;;;;;;19.75;16.75;;;;;23.46;54.00;99948.97;5078197;27;45445;-57
2022/08/15 00:49:05;;;;;;;;;17.75;16.00;;;;;23.45;54.00;99951.75;5077048;27;76036;-57
2022/08/15 00:51:11;;;;;;;;;19.50;16.00;;;;;23.42;53.88;99954.72;5067582;28;45534;-56
2022/08/15 00:53:37;;;;;;;;;16.00;15.50;;;;;23.41;53.52;99950.34;5073866;28;45225;-57
2022/08/15 00:56:05;;;;;;;;;22.50;19.75;;;;;23.39;53.79;99950.53;5079026;27;45374;-58
2022/08/15 00:58:30;;;;;;;;;18.50;16.75;;;;;23.40;53.60;99944.19;5070977;27;46507;-58
2022/08/15 01:00:56;;;;;;;;;19.75;17.00;;;;;23.42;53.55;99950.22;5079711;27;45430;-56
2022/08/15 01:03:32;;;;;;;;;15.25;14.50;;;;;23.43;53.79;99943.06;5085984;27;45268;-56
2022/08/15 01:06:00;;;;;;;;;15.25;14.25;;;;;23.43;53.73;99941.22;5078468;27;45329;-58
2022/08/15 01:08:30;;;;;;;;;17.00;17.00;;;;;23.44;53.60;99944.72;5075120;27;46611;-57
2022/08/15 01:10:57;;;;;;;;;17.50;15.75;;;;;23.45;53.41;99952.59;5073881;28;45333;-57
2022/08/15 01:13:22;;;;;;;;;19.00;17.00;;;;;23.45;53.78;99952.59;5077479;27;45492;-57
2022/08/15 01:15:48;;;;;;;;;17.75;15.75;;;;;23.45;53.54;99949.09;5078234;27;68500;-57
2022/08/15 01:18:13;;;;;;;;;23.50;18.25;;;;;23.43;53.42;99951.91;5063533;27;71442;-57
2022/08/15 01:20:40;;;;;;;;;19.25;17.00;;;;;23.42;53.14;99947.53;5077102;27;67904;-57
2022/08/15 01:23:15;;;;;;;;;15.75;15.75;;;;;23.42;53.70;99950.22;5079164;27;45338;-57
2022/08/15 01:25:45;;;;;;;;;22.25;18.25;;;;;23.41;53.44;99943.19;5076249;28;45412;-56
2022/08/15 01:28:17;;;;;;;;;23.00;19.75;;;;;23.41;53.23;99947.69;5076045;28;46319;-56
2022/08/15 01:30:49;;;;;;;;;21.50;18.00;;;;;23.40;53.30;99954.03;5087228;27;45427;-57
2022/08/15 01:33:15;;;;;;;;;23.25;18.75;;;;;23.36;53.20;99953.47;5073418;28;45397;-57
2022/08/15 01:35:43;;;;;;;;;20.25;18.00;;;;;23.33;52.90;99950.25;5079433;28;45356;-56
2022/08/15 01:38:27;;;;;;;;;18.25;15.00;;;;;23.27;53.57;99951.66;5076490;28;46384;-57
2022/08/15 01:41:00;;;;;;;;;19.00;16.00;;;;;23.24;53.32;99954.59;5074280;28;45203;-56
2022/08/15 01:43:30;;;;;;;;;16.25;15.00;;;;;23.18;53.34;99949.81;5078858;28;45358;-58
2022/08/15 01:45:58;;;;;;;;;22.75;16.00;;;;;23.15;53.43;99945.63;5076900;27;45323;-57
2022/08/15 01:48:40;;;;;;;;;17.00;14.25;;;;;23.12;53.45;99944.09;5063921;28;45440;-57
2022/08/15 01:51:06;;;;;;;;;16.25;15.25;;;;;23.12;53.08;99940.56;5076165;27;45931;-57
2022/08/15 01:54:03;;;;;;;;;18.75;16.25;;;;;23.11;53.31;99941.56;5076996;27;45456;-57
2022/08/15 01:56:37;;;;;;;;;17.50;16.25;;;;;23.08;52.94;99941.84;5065755;27;45338;-56
2022/08/15 01:59:05;;;;;;;;;19.75;15.00;;;;;23.07;53.07;99937.47;5071071;27;45388;-57
2022/08/15 02:01:43;;;;;;;;;17.75;16.50;;;;;23.06;53.17;99933.13;5063131;27;45297;-57
2022/08/15 02:04:10;;;;;;;;;17.00;15.25;;;;;23.03;53.15;99928.03;5072652;28;45816;-57
2022/08/15 02:06:36;;;;;;;;;18.50;17.00;;;;;22.99;53.69;99927.47;5080108;27;45548;-57
2022/08/15 02:09:05;;;;;;;;;19.25;18.00;;;;;23.00;53.63;99918.50;5073667;28;74570;-56
2022/08/15 02:11:30;;;;;;;;;19.25;16.00;;;;;23.01;52.98;99927.34;5074421;27;45965;-56
2022/08/15 02:13:56;;;;;;;;;13.25;11.25;;;;;23.01;53.46;99927.34;5078095;27;45354;-57
2022/08/15 02:16:31;;;;;;;;;19.50;18.25;;;;;23.01;53.13;99932.69;5075627;27;45504;-57
2022/08/15 02:18:59;;;;;;;;;23.00;18.75;;;;;23.02;53.08;99926.34;5074356;28;45355;-57
2022/08/15 02:21:24;;;;;;;;;18.75;17.50;;;;;23.02;53.23;99924.53;5077735;28;45358;-57
2022/08/15 02:23:50;;;;;;;;;21.00;16.25;;;;;23.01;53.40;99919.34;5070398;27;45372;-57
2022/08/15 02:26:15;;;;;;;;;22.00;17.75;;;;;23.02;53.04;99923.69;5073816;27;67255;-56
2022/08/15 02:28:42;;;;;;;;;23.25;19.25;;;;;23.01;53.91;99924.69;5075091;27;45518;-57
2022/08/15 02:31:10;;;;;;;;;17.50;15.00;;;;;23.00;53.16;99920.31;5072326;27;45311;-56
2022/08/15 02:33:35;;;;;;;;;19.75;16.75;;;;;22.97;53.04;99928.63;5072252;28;45580;-56
2022/08/15 02:36:01;;;;;;;;;21.75;19.50;;;;;22.94;53.23;99925.22;5070852;28;45374;-57
2022/08/15 02:38:27;;;;;;;;;17.25;17.25;;;;;22.94;53.25;99917.22;5080977;27;45377;-57
2022/08/15 02:40:52;;;;;;;;;16.25;14.25;;;;;22.94;53.04;99917.22;5087827;27;45314;-56
2022/08/15 02:43:19;;;;;;;;;19.75;17.50;;;;;22.95;53.59;99907.41;5074280;28;45475;-57
2022/08/15 02:45:47;;;;;;;;;23.75;17.50;;;;;22.95;53.46;99912.75;5072282;28;45383;-57
2022/08/15 02:48:13;;;;;;;;;17.75;16.25;;;;;22.98;53.75;99911.63;5080247;27;46137;-56
2022/08/15 02:50:39;;;;;;;;;20.25;19.75;;;;;22.95;53.36;99912.75;5073402;27;45877;-57
2022/08/15 02:53:10;;;;;;;;;20.75;18.00;;;;;22.97;53.54;99912.63;5073594;28;45406;-57
2022/08/15 02:55:36;;;;;;;;;17.25;16.25;;;;;22.98;53.57;99908.94;5074665;27;45474;-57
2022/08/15 02:58:02;;;;;;;;;22.50;17.75;;;;;22.98;53.56;99908.94;5071924;27;45486;-57
2022/08/15 03:00:28;;;;;;;;;20.00;18.00;;;;;22.96;53.73;99901.06;5063998;28;45308;-56
2022/08/15 03:03:00;;;;;;;;;19.00;16.50;;;;;22.97;52.97;99912.63;5076612;27;45433;-57
2022/08/15 03:05:29;;;;;;;;;21.50;19.50;;;;;22.96;53.72;99916.25;5078375;28;45292;-56
2022/08/15 03:07:55;;;;;;;;;18.25;18.25;;;;;22.95;53.71;99902.06;5073717;27;45193;-57
2022/08/15 03:10:20;;;;;;;;;19.00;17.75;;;;;22.96;53.36;99903.75;5077497;28;45468;-55
2022/08/15 03:12:53;;;;;;;;;19.25;17.50;;;;;22.97;53.27;99901.94;5072695;28;45374;-56
2022/08/15 03:15:32;;;;;;;;;17.75;17.50;;;;;22.98;52.91;99899.09;5078226;27;45395;-56
2022/08/15 03:18:01;;;;;;;;;17.50;15.25;;;;;22.96;53.55;99895.75;5076471;27;46181;-56
2022/08/15 03:20:26;;;;;;;;;17.50;15.50;;;;;22.96;53.49;99903.75;5072813;28;45810;-57
2022/08/15 03:22:53;;;;;;;;;15.25;14.25;;;;;22.95;53.17;99888.75;5075590;27;45305;-57
2022/08/15 03:25:20;;;;;;;;;20.25;16.50;;;;;22.95;53.45;99894.06;5068610;27;45232;-57
2022/08/15 03:27:46;;;;;;;;;19.00;16.75;;;;;22.96;53.18;99900.25;5075323;27;45371;-59
2022/08/15 03:30:13;;;;;;;;;16.75;15.00;;;;;22.96;53.43;99892.25;5072268;28;45307;-57
2022/08/15 03:32:49;;;;;;;;;16.75;16.50;;;;;22.96;53.50;99892.25;5075174;28;45359;-57
2022/08/15 03:35:17;;;;;;;;;22.25;18.00;;;;;22.93;53.12;99891.53;5077761;28;45401;-56
2022/08/15 03:37:43;;;;;;;;;18.25;15.50;;;;;22.94;53.60;99903.03;5075705;27;45498;-57
2022/08/15 03:40:10;;;;;;;;;21.25;18.50;;;;;22.93;53.52;99896.03;5072701;28;45752;-57
2022/08/15 03:42:35;;;;;;;;;20.00;19.00;;;;;22.92;53.31;99903.19;5077652;27;45464;-55
2022/08/15 03:45:03;;;;;;;;;25.25;19.75;;;;;22.90;53.91;99894.47;5080555;27;45517;-57
2022/08/15 03:47:29;;;;;;;;;17.75;16.50;;;;;22.89;53.51;99898.13;5075601;28;47348;-56
2022/08/15 03:49:55;;;;;;;;;21.00;16.50;;;;;22.89;53.99;99898.13;5076335;27;45366;-55
2022/08/15 03:52:20;;;;;;;;;20.00;15.75;;;;;22.89;54.10;99895.47;5078609;27;45484;-55
2022/08/15 03:54:46;;;;;;;;;18.25;18.25;;;;;22.88;53.47;99895.63;5066174;28;45303;-57
2022/08/15 03:57:12;;;;;;;;;21.25;17.00;;;;;22.88;54.11;99892.97;5077588;27;45973;-56
2022/08/15 03:59:37;;;;;;;;;19.50;15.25;;;;;22.88;54.09;99883.13;5055409;28;45426;-57
2022/08/15 04:02:06;;;;;;;;;20.25;17.00;;;;;22.88;53.98;99883.13;5076943;28;45342;-57
2022/08/15 04:04:32;;;;;;;;;18.75;15.25;;;;;22.88;54.10;99893.78;5081384;27;45283;-57
2022/08/15 04:06:57;;;;;;;;;20.50;17.75;;;;;22.87;53.90;99881.41;5080568;27;46847;-56
2022/08/15 04:09:23;;;;;;;;;21.50;19.25;;;;;22.86;53.73;99873.56;5086268;27;62127;-57
2022/08/15 04:11:48;;;;;;;;;18.50;16.25;;;;;22.88;53.57;99876.94;5079371;27;57277;-57
2022/08/15 04:14:14;;;;;;;;;16.00;14.50;;;;;22.88;53.20;99868.94;5080264;27;45349;-57
2022/08/15 04:16:39;;;;;;;;;19.75;17.50;;;;;22.91;53.62;99865.97;5073930;27;68686;-56
2022/08/15 04:19:04;;;;;;;;;22.00;18.00;;;;;22.91;53.66;99864.16;5075612;28;66006;-57
2022/08/15 04:21:30;;;;;;;;;17.00;14.50;;;;;22.91;53.45;99864.16;5077802;27;65349;-57
2022/08/15 04:23:55;;;;;;;;;17.00;15.25;;;;;22.90;53.48;99864.31;5077332;28;74541;-56
2022/08/15 04:26:20;;;;;;;;;18.00;16.75;;;;;22.89;53.50;99862.59;5079126;27;46125;-57
2022/08/15 04:28:46;;;;;;;;;16.00;13.75;;;;;22.88;53.12;99869.78;5076661;28;45358;-57
2022/08/15 04:31:18;;;;;;;;;18.75;13.00;;;;;22.88;52.81;99868.94;5074844;27;61249;-57
2022/08/15 04:33:44;;;;;;;;;18.50;16.25;;;;;22.86;53.22;99866.41;5077292;28;45350;-57
2022/08/15 04:36:12;;;;;;;;;14.75;14.75;;;;;22.88;53.20;99876.94;5073851;28;47455;-58
2022/08/15 04:38:39;;;;;;;;;17.50;15.75;;;;;22.86;53.04;99870.88;5077932;27;45297;-55
2022/08/15 04:41:06;;;;;;;;;18.00;15.25;;;;;22.86;53.32;99862.88;5076489;27;45275;-56
2022/08/15 04:43:33;;;;;;;;;19.00;16.50;;;;;22.86;53.12;99878.88;5085492;27;45409;-56
2022/08/15 04:45:58;;;;;;;;;16.75;16.50;;;;;22.83;53.67;99872.03;5078741;28;47083;-56
2022/08/15 04:48:25;;;;;;;;;18.50;15.00;;;;;22.82;52.94;99881.00;5077351;27;45381;-56
2022/08/15 04:50:53;;;;;;;;;23.25;18.75;;;;;22.83;52.97;99881.88;5075259;27;45346;-56
2022/08/15 04:53:25;;;;;;;;;22.25;16.25;;;;;22.81;53.32;99871.34;5077978;27;45289;-56
2022/08/15 04:55:51;;;;;;;;;4.25;0.00;;;;;22.80;53.22;99879.47;5071753;28;47481;-54
2022/08/15 04:58:17;;;;;;;;;17.75;17.00;;;;;22.78;53.23;99865.44;5075954;27;45353;-55
2022/08/15 05:00:50;;;;;;;;;18.50;18.00;;;;;22.76;53.43;99865.56;5069719;28;45421;-55
2022/08/15 05:03:18;;;;;;;;;17.75;17.75;;;;;22.74;52.99;99868.38;5067748;27;45346;-56
2022/08/15 05:05:55;;;;;;;;;19.75;17.00;;;;;22.69;53.34;99862.63;5069263;28;46531;-56
2022/08/15 05:08:25;;;;;;;;;19.75;15.50;;;;;22.69;53.42;99859.13;5066238;28;45465;-56
2022/08/15 05:10:54;;;;;;;;;15.50;13.75;;;;;22.69;52.91;99846.63;5078665;27;45616;-55
2022/08/15 05:13:23;;;;;;;;;13.75;12.25;;;;;22.70;53.16;99845.66;5079193;27;45272;-56
2022/08/15 05:15:48;;;;;;;;;20.25;15.75;;;;;22.71;53.13;99838.47;5079751;27;45497;-56
2022/08/15 05:18:14;;;;;;;;;17.00;13.50;;;;;22.70;53.02;99840.31;5076195;27;45334;-55
2022/08/15 05:20:41;;;;;;;;;21.50;16.25;;;;;22.70;53.03;99840.31;5079023;28;45474;-55
2022/08/15 05:23:09;;;;;;;;;18.00;16.50;;;;;22.66;52.98;99844.22;5073200;27;45500;-56
2022/08/15 05:25:38;;;;;;;;;19.00;16.50;;;;;22.63;53.16;99852.53;5079052;28;45455;-56
2022/08/15 05:28:03;;;;;;;;;17.25;17.00;;;;;22.57;52.83;99853.09;5088811;27;45616;-54
2022/08/15 05:30:29;;;;;;;;;18.75;15.75;;;;;22.52;53.36;99848.19;5065669;28;64099;-55
2022/08/15 05:33:11;;;;;;;;;16.25;15.50;;;;;22.49;53.68;99852.97;5076999;27;45302;-55
2022/08/15 05:35:41;;;;;;;;;16.50;14.75;;;;;22.46;53.41;99840.72;5073759;27;46199;-55
2022/08/15 05:38:17;;;;;;;;;21.50;19.00;;;;;22.46;53.91;99842.56;5074880;27;45895;-56
2022/08/15 05:40:49;;;;;;;;;20.25;17.00;;;;;22.45;53.43;99836.41;5080155;27;45351;-55
2022/08/15 05:43:40;;;;;;;;;21.00;19.75;;;;;22.45;53.57;99839.06;5078347;27;45510;-52
2022/08/15 05:46:39;;;;;;;;;20.75;19.00;;;;;22.45;53.60;99844.41;5068905;28;47027;-55
2022/08/15 05:49:18;;;;;;;;;24.25;19.50;;;;;22.45;53.52;99836.41;5071741;27;45288;-57
2022/08/15 05:52:01;;;;;;;;;20.00;19.00;;;;;22.45;53.37;99841.75;5077911;27;45425;-56
2022/08/15 05:54:36;;;;;;;;;14.00;13.75;;;;;22.46;53.30;99848.72;5078279;27;45468;-56
2022/08/15 05:57:25;;;;;;;;;20.50;20.00;;;;;22.50;53.81;99843.97;5082493;27;46392;-56
2022/08/15 05:59:52;;;;;;;;;20.00;16.75;;;;;22.53;53.61;99849.84;5066427;27;45800;-55
2022/08/15 06:02:28;;;;;;;;;22.25;19.00;;;;;22.53;53.28;99849.84;5073948;28;45393;-56
2022/08/15 06:05:09;;;;;;;;;17.00;15.00;;;;;22.49;53.89;99851.13;5070397;28;45587;-55
2022/08/15 06:07:34;;;;;;;;;19.50;15.50;;;;;22.48;53.74;99865.44;5071547;28;45311;-56
2022/08/15 06:10:06;;;;;;;;;17.50;16.75;;;;;22.49;53.88;99860.97;5074794;27;45320;-56
2022/08/15 06:12:39;;;;;;;;;14.75;14.75;;;;;22.47;53.58;99854.91;5069512;28;45394;-55
2022/08/15 06:15:33;;;;;;;;;20.75;19.25;;;;;22.45;53.47;99857.72;5075552;27;45649;-56
2022/08/15 06:18:01;;;;;;;;;21.25;18.00;;;;;22.45;53.65;99864.88;5076120;27;46603;-56
2022/08/15 06:20:48;;;;;;;;;16.25;14.25;;;;;22.42;52.85;99860.66;5071425;28;45551;-56
2022/08/15 06:23:23;;;;;;;;;19.25;17.25;;;;;22.40;53.35;99851.97;5073016;28;45370;-56
2022/08/15 06:26:11;;;;;;;;;20.00;15.00;;;;;22.37;53.77;99861.06;5072048;27;45515;-56
2022/08/15 06:29:09;;;;;;;;;16.50;15.50;;;;;22.36;53.55;99851.41;5075371;28;45511;-55
2022/08/15 06:31:38;;;;;;;;;15.50;15.50;;;;;22.42;53.02;99855.34;5072272;28;45878;-55
2022/08/15 06:34:30;;;;;;;;;18.25;16.50;;;;;22.41;53.32;99852.81;5077399;27;45382;-55
2022/08/15 06:37:06;;;;;;;;;24.75;17.00;;;;;22.43;53.81;99853.50;5071456;28;45481;-55
2022/08/15 06:39:31;;;;;;;;;16.75;14.75;;;;;22.46;53.43;99853.22;5073590;28;46913;-56
2022/08/15 06:42:34;;;;;;;;;18.00;15.75;;;;;22.42;53.23;99852.66;5078242;27;45330;-56
2022/08/15 06:45:06;;;;;;;;;18.50;14.75;;;;;22.42;53.34;99844.66;5070691;27;45423;-55
2022/08/15 06:47:32;;;;;;;;;18.00;15.75;;;;;22.42;52.93;99846.50;5088606;27;45252;-56
2022/08/15 06:50:27;;;;;;;;;17.25;15.25;;;;;22.33;52.84;99837.53;5090075;27;63004;-55
2022/08/15 06:53:03;;;;;;;;;17.75;15.00;;;;;22.36;53.62;99840.75;5076500;28;45334;-56
2022/08/15 06:55:39;;;;;;;;;18.50;13.00;;;;;22.39;53.72;99849.44;5074193;27;45484;-55
2022/08/15 06:58:11;;;;;;;;;16.00;14.75;;;;;22.39;53.68;99850.28;5069436;27;45625;-57
2022/08/15 07:00:54;;;;;;;;;16.00;14.00;;;;;22.38;53.45;99856.56;5085655;27;45281;-53
2022/08/15 07:03:41;;;;;;;;;15.25;13.00;;;;;22.39;52.87;99854.78;5069431;27;45233;-55
2022/08/15 07:06:07;;;;;;;;;16.00;12.25;;;;;22.34;53.69;99845.34;5077768;28;45301;-56
2022/08/15 07:08:43;;;;;;;;;19.50;16.00;;;;;22.34;53.35;99832.03;5070867;27;45295;-55
2022/08/15 07:11:31;;;;;;;;;19.75;17.00;;;;;22.39;53.95;99841.44;5071651;28;45415;-55
2022/08/15 07:14:04;;;;;;;;;17.25;15.00;;;;;22.42;53.42;99843.84;5077177;27;45852;-54
2022/08/15 07:16:38;;;;;;;;;17.00;15.25;;;;;22.52;53.26;99850.00;5075565;27;45317;-55
2022/08/15 07:19:04;;;;;;;;;18.00;14.50;;;;;22.57;53.36;99853.09;5080748;27;45216;-54
2022/08/15 07:21:29;;;;;;;;;18.75;13.25;;;;;22.61;52.98;99849.19;5077621;27;46299;-55
2022/08/15 07:24:03;;;;;;;;;13.25;13.25;;;;;22.64;53.52;99854.19;5078434;27;45335;-57
2022/08/15 07:26:31;;;;;;;;;19.25;14.75;;;;;22.68;53.04;99850.28;5076252;27;45453;-55
2022/08/15 07:28:59;;;;;;;;;15.00;14.75;;;;;22.73;53.14;99857.84;5082112;27;45494;-56
2022/08/15 07:31:34;;;;;;;;;16.25;15.00;;;;;22.79;53.42;99865.31;5073691;27;46309;-56
2022/08/15 07:34:16;;;;;;;;;19.00;15.25;;;;;22.84;53.38;99857.72;5092231;27;45744;-54
2022/08/15 07:36:52;;;;;;;;;20.00;13.50;;;;;22.90;53.20;99859.81;5075892;28;45344;-56
2022/08/15 07:39:25;;;;;;;;;14.50;14.00;;;;;22.97;53.04;99864.59;5080486;28;45454;-55
2022/08/15 07:41:50;;;;;;;;;14.75;13.75;;;;;23.01;53.02;99860.63;5078303;27;47330;-54
2022/08/15 07:44:18;;;;;;;;;19.00;14.75;;;;;23.05;52.71;99860.22;5073252;28;45671;-56
2022/08/15 07:46:54;;;;;;;;;16.50;15.50;;;;;23.11;52.38;99859.66;5077436;28;45367;-56
2022/08/15 07:49:25;;;;;;;;;12.50;12.00;;;;;23.17;52.27;99860.06;5074054;28;45468;-55
2022/08/15 07:52:06;;;;;;;;;18.00;13.00;;;;;23.21;52.00;99859.63;5078361;27;46513;-56
2022/08/15 07:54:51;;;;;;;;;15.75;12.75;;;;;23.25;51.81;99855.69;5076590;28;45813;-56
2022/08/15 07:57:19;;;;;;;;;12.00;9.25;;;;;23.30;51.38;99853.44;5075047;28;45315;-56
2022/08/15 08:00:09;;;;;;;;;11.75;10.25;;;;;23.36;51.42;99861.84;5073973;27;45328;-56
2022/08/15 08:02:40;;;;;;;;;13.75;12.00;;;;;23.42;51.43;99847.91;5079718;27;46163;-56
2022/08/15 08:05:06;;;;;;;;;14.50;10.50;;;;;23.48;50.94;99863.34;5076785;27;45318;-56
2022/08/15 08:07:35;;;;;;;;;18.25;12.00;;;;;23.52;50.96;99863.91;5075323;28;45347;-56
2022/08/15 08:10:03;;;;;;;;;10.75;10.75;;;;;23.53;50.83;99862.91;5078708;27;45456;-55
2022/08/15 08:12:54;;;;;;;;;14.00;11.00;;;;;23.58;50.55;99861.47;5078085;27;46222;-56
2022/08/15 08:16:02;;;;;;;;;13.25;10.50;;;;;23.64;50.60;99854.72;5076262;28;45316;-54
2022/08/15 08:18:43;;;;;;;;;13.25;10.50;;;;;23.69;50.84;99855.09;5038280;28;45583;-56
2022/08/15 08:21:14;;;;;;;;;10.75;10.75;;;;;23.74;50.48;99844.81;5073847;27;45433;-56
2022/08/15 08:23:52;;;;;;;;;12.50;11.00;;;;;23.74;50.58;99850.16;5077831;27;46175;-56
2022/08/15 08:26:40;;;;;;;;;11.25;9.25;;;;;23.78;50.22;99854.22;5079938;27;45419;-56
2022/08/15 08:29:24;;;;;;;;;12.25;10.00;;;;;23.77;50.53;99857.03;5078373;27;45857;-56
2022/08/15 08:31:59;;;;;;;;;10.00;8.75;;;;;23.75;50.48;99864.38;5077146;27;45495;-55
2022/08/15 08:34:39;;;;;;;;;10.50;9.00;;;;;23.78;50.41;99864.03;5077388;27;46281;-56
2022/08/15 08:37:14;;;;;;;;;10.50;8.50;;;;;23.81;50.62;99861.13;5077109;28;45368;-54
2022/08/15 08:39:39;;;;;;;;;11.75;10.50;;;;;23.85;50.60;99857.16;5077064;27;45394;-56
2022/08/15 08:42:34;;;;;;;;;13.00;10.33;;;;;23.87;50.70;99857.88;5076786;27;45447;-56
2022/08/15 08:45:04;;;;;;;;;16.75;11.00;;;;;23.93;50.20;99864.44;5076923;28;45320;-56
2022/08/15 08:47:48;;;;;;;;;11.00;10.75;;;;;23.98;50.36;99865.66;5078476;27;45159;-56
2022/08/15 08:50:22;;;;;;;;;13.00;12.25;;;;;24.06;50.20;99854.22;5077736;27;45557;-54
2022/08/15 08:53:06;;;;;;;;;12.25;11.25;;;;;24.10;50.19;99857.44;5076653;28;45448;-54
2022/08/15 08:55:47;;;;;;;;;10.25;10.00;;;;;24.14;49.84;99848.16;5076009;27;47077;-54
2022/08/15 08:58:27;;;;;;;;;12.25;8.75;;;;;24.16;49.91;99843.47;5079706;27;45374;-56
2022/08/15 09:00:53;;;;;;;;;11.50;9.25;;;;;24.18;49.56;99845.00;5067296;27;45342;-56
2022/08/15 09:03:32;;;;;;;;;10.75;8.50;;;;;24.22;49.47;99845.53;5080283;27;45293;-56
2022/08/15 09:05:58;;;;;;;;;10.75;7.25;;;;;24.30;49.31;99850.97;5080130;27;47100;-56
2022/08/15 09:08:32;;;;;;;;;8.00;7.00;;;;;24.38;48.95;99848.38;5070019;27;45492;-56
2022/08/15 09:11:03;;;;;;;;;7.25;5.75;;;;;24.42;49.21;99855.09;5079314;28;45218;-56
2022/08/15 09:13:36;;;;;;;;;14.25;9.00;;;;;24.49;49.50;99855.34;5071757;27;45610;-54
2022/08/15 09:16:21;;;;;;;;;8.50;6.75;;;;;24.59;49.04;99860.63;5080061;27;45925;-56
2022/08/15 09:19:05;;;;;;;;;9.00;8.00;;;;;24.77;48.77;99864.16;5074105;28;45355;-56
2022/08/15 09:21:32;;;;;;;;;9.75;9.00;;;;;24.91;48.40;99857.38;5076943;27;45332;-56
2022/08/15 09:23:59;;;;;;;;;10.75;8.50;;;;;24.98;48.33;99857.59;5074474;28;46031;-55
2022/08/15 09:26:40;;;;;;;;;10.00;10.00;;;;;25.03;48.41;99857.97;5069143;28;45706;-54
2022/08/15 09:29:22;;;;;;;;;7.75;7.00;;;;;25.22;48.04;99856.94;5083902;27;45307;-56
2022/08/15 09:32:15;;;;;;;;;10.00;8.75;;;;;25.75;47.91;99861.25;5073598;27;45289;-56
2022/08/15 09:35:15;;;;;;;;;10.00;9.75;;;;;26.65;46.90;99852.63;5074555;28;45415;-57
2022/08/15 09:37:55;;;;;;;;;10.25;8.25;;;;;27.84;45.92;99851.03;5077447;28;45315;-54
2022/08/15 09:40:40;;;;;;;;;10.25;9.00;;;;;28.82;44.18;99853.31;5091252;27;45231;-69
2022/08/15 09:43:08;;;;;;;;;8.75;8.25;;;;;28.91;43.83;99860.28;5076893;28;45344;-58
2022/08/15 09:45:59;;;;;;;;;8.50;7.50;;;;;28.78;43.07;99866.28;5074088;27;45371;-57
2022/08/15 09:48:32;;;;;;;;;6.75;6.75;;;;;29.52;42.12;99861.03;5069433;28;46328;-57
2022/08/15 09:51:35;;;;;;;;;6.75;5.25;;;;;30.47;40.36;99864.69;5072700;28;45488;-56
2022/08/15 09:54:17;;;;;;;;;7.00;7.00;;;;;30.64;40.27;99875.22;5078245;27;45736;-56
2022/08/15 09:56:43;;;;;;;;;7.50;7.50;;;;;30.37;40.30;99874.97;5079534;27;45533;-57
2022/08/15 09:59:21;;;;;;;;;4.00;4.00;;;;;29.98;39.94;99859.13;5084177;27;45551;-57
2022/08/15 10:01:58;;;;;;;;;7.00;5.25;;;;;29.64;39.86;99869.50;5077984;27;45675;-57
2022/08/15 10:04:48;;;;;;;;;6.25;5.50;;;;;29.29;40.98;99865.69;5079387;27;45378;-57
2022/08/15 10:07:13;;;;;;;;;7.25;6.25;;;;;29.08;40.64;99863.66;5075347;27;45225;-57
2022/08/15 10:09:44;;;;;;;;;2.00;2.00;;;;;29.11;40.50;99860.59;5083163;27;46907;-57
2022/08/15 10:12:10;;;;;;;;;3.50;3.50;;;;;29.02;40.03;99864.38;5081354;27;45263;-57
2022/08/15 10:14:51;;;;;;;;;2.25;2.25;;;;;28.84;40.96;99865.53;5079098;27;45340;-55
2022/08/15 10:17:25;;;;;;;;;2.00;2.00;;;;;28.57;40.80;99869.66;5076450;28;45311;-56
2022/08/15 10:19:51;;;;;;;;;2.50;2.50;;;;;28.32;41.82;99860.88;5078582;27;45893;-57
2022/08/15 10:22:21;;;;;;;;;3.75;3.75;;;;;28.07;41.73;99868.28;5078315;27;45471;-57
2022/08/15 10:25:15;;;;;;;;;2.00;1.50;;;;;27.82;41.97;99860.28;5074162;28;45440;-57
2022/08/15 10:27:55;;;;;;;;;3.00;3.00;;;;;27.52;42.04;99864.63;5078527;27;45289;-55
2022/08/15 10:30:25;;;;;;;;;2.25;2.25;;;;;27.21;42.83;99876.06;5071433;28;45316;-59
2022/08/15 10:32:52;;;;;;;;;3.25;3.25;;;;;26.88;43.15;99874.25;5070403;28;45684;-56
2022/08/15 10:35:51;;;;;;;;;4.25;2.75;;;;;26.60;43.78;99871.03;5058395;28;45182;-57
2022/08/15 10:38:25;;;;;;;;;5.00;3.25;;;;;26.36;43.75;99873.69;5048175;28;45508;-56
2022/08/15 10:41:15;;;;;;;;;3.00;3.00;;;;;26.09;44.39;99873.78;5062657;28;45484;-56
2022/08/15 10:43:46;;;;;;;;;4.75;4.75;;;;;25.93;45.11;99871.03;5077217;27;45364;-56
2022/08/15 10:46:35;;;;;;;;;6.50;6.00;;;;;25.81;44.88;99878.53;5069885;27;45335;-56
2022/08/15 10:49:41;;;;;;;;;5.00;5.00;;;;;25.63;45.67;99875.94;5071913;28;45236;-56
2022/08/15 10:52:19;;;;;;;;;7.00;5.50;;;;;25.49;45.59;99863.13;5020889;28;46790;-56
2022/08/15 10:54:45;;;;;;;;;3.00;3.00;;;;;25.44;45.90;99871.63;5016112;28;45716;-56
2022/08/15 10:57:16;;;;;;;;;6.25;4.25;;;;;25.39;45.95;99864.09;5040533;28;45361;-55
2022/08/15 10:59:44;;;;;;;;;6.50;4.50;;;;;25.34;46.21;99863.72;5049088;28;45456;-56
2022/08/15 11:02:18;;;;;;;;;4.75;4.75;;;;;25.31;46.54;99868.56;5081124;27;45456;-56
2022/08/15 11:04:44;;;;;;;;;7.00;5.25;;;;;25.28;46.69;99866.19;5082251;27;45676;-55
2022/08/15 11:07:20;;;;;;;;;6.00;5.50;;;;;25.27;46.49;99865.38;5069725;28;45425;-56
2022/08/15 11:09:54;;;;;;;;;6.75;6.75;;;;;25.26;46.76;99858.31;5073506;27;45448;-56
2022/08/15 11:12:21;;;;;;;;;4.25;4.25;;;;;25.24;46.87;99857.59;5078759;27;46107;-55
2022/08/15 11:14:51;;;;;;;;;5.25;5.25;;;;;25.22;46.90;99854.25;5070199;27;45274;-56
2022/08/15 11:17:19;;;;;;;;;6.00;6.00;;;;;25.23;47.00;99865.78;5079568;27;45423;-56
2022/08/15 11:19:49;;;;;;;;;7.75;6.00;;;;;25.17;46.91;99860.06;5081196;27;45497;-56
2022/08/15 11:22:31;;;;;;;;;8.00;7.00;;;;;25.18;47.43;99866.28;5080766;27;47003;-56
2022/08/15 11:25:24;;;;;;;;;8.75;5.75;;;;;25.17;47.43;99865.44;5080790;27;46185;-56
2022/08/15 11:28:03;;;;;;;;;7.00;6.75;;;;;25.15;47.10;99874.63;5058938;28;45496;-55
2022/08/15 11:30:32;;;;;;;;;6.25;6.00;;;;;25.11;47.36;99874.09;5076170;27;45531;-55
2022/08/15 11:33:26;;;;;;;;;8.00;5.00;;;;;25.08;47.35;99870.91;5074519;28;45506;-58
2022/08/15 11:36:12;;;;;;;;;4.25;4.25;;;;;25.06;47.23;99865.69;5097856;27;45622;-55
2022/08/15 11:38:42;;;;;;;;;6.50;6.50;;;;;25.08;47.33;99874.41;5070420;28;45380;-56
2022/08/15 11:41:08;;;;;;;;;6.00;6.00;;;;;25.08;47.23;99877.09;5096560;27;45295;-56
2022/08/15 11:43:33;;;;;;;;;6.25;5.25;;;;;25.11;47.71;99881.31;5081877;27;53088;-55
2022/08/15 11:45:59;;;;;;;;;5.25;4.50;;;;;25.08;47.79;99884.28;5080734;27;55504;-56
2022/08/15 11:48:29;;;;;;;;;7.00;6.75;;;;;25.02;47.67;99878.56;5080732;27;45335;-56
2022/08/15 11:51:09;;;;;;;;;5.00;5.00;;;;;24.98;47.85;99876.34;5081711;27;46136;-56